sensor_id;sensor_type;location;lat;lon;timestamp;P1;durP1;ratioP1;P2;durP2;ratioP2
11396;SDS011;5754;43.726;7.416;2023-05-10T00:01:18;6.73;;;6.03;;
11396;SDS011;5754;43.726;7.416;2023-05-10T00:03:55;8.20;;;6.20;;
11396;SDS011;5754;43.726;7.416;2023-05-10T00:06:31;9.87;;;6.53;;
11396;SDS011;5754;43.726;7.416;2023-05-10T00:09:08;8.90;;;6.10;;
11396;SDS011;5754;43.726;7.416;2023-05-10T00:11:43;8.23;;;6.53;;
11396;SDS011;5754;43.726;7.416;2023-05-10T00:14:17;6.60;;;5.97;;
11396;SDS011;5754;43.726;7.416;2023-05-10T00:16:52;7.80;;;6.47;;
11396;SDS011;5754;43.726;7.416;2023-05-10T00:22:12;7.63;;;6.40;;
11396;SDS011;5754;43.726;7.416;2023-05-10T00:24:48;7.20;;;6.10;;
11396;SDS011;5754;43.726;7.416;2023-05-10T00:27:24;8.83;;;6.43;;
11396;SDS011;5754;43.726;7.416;2023-05-10T00:29:59;7.83;;;6.63;;
11396;SDS011;5754;43.726;7.416;2023-05-10T00:32:36;7.97;;;6.97;;
11396;SDS011;5754;43.726;7.416;2023-05-10T00:35:12;7.17;;;6.50;;
11396;SDS011;5754;43.726;7.416;2023-05-10T00:37:49;9.07;;;6.53;;
11396;SDS011;5754;43.726;7.416;2023-05-10T00:40:24;7.83;;;6.53;;
11396;SDS011;5754;43.726;7.416;2023-05-10T00:43:02;8.10;;;6.63;;
11396;SDS011;5754;43.726;7.416;2023-05-10T00:45:36;11.60;;;7.03;;
11396;SDS011;5754;43.726;7.416;2023-05-10T00:48:13;9.03;;;7.63;;
11396;SDS011;5754;43.726;7.416;2023-05-10T00:50:50;7.93;;;6.77;;
11396;SDS011;5754;43.726;7.416;2023-05-10T00:53:27;7.73;;;6.90;;
11396;SDS011;5754;43.726;7.416;2023-05-10T00:56:02;7.10;;;6.50;;
11396;SDS011;5754;43.726;7.416;2023-05-10T00:58:41;8.70;;;6.60;;
11396;SDS011;5754;43.726;7.416;2023-05-10T01:01:18;7.00;;;6.40;;
11396;SDS011;5754;43.726;7.416;2023-05-10T01:03:53;8.67;;;6.53;;
11396;SDS011;5754;43.726;7.416;2023-05-10T01:06:30;7.93;;;6.63;;
11396;SDS011;5754;43.726;7.416;2023-05-10T01:09:05;8.33;;;6.67;;
11396;SDS011;5754;43.726;7.416;2023-05-10T01:11:41;10.40;;;7.37;;
11396;SDS011;5754;43.726;7.416;2023-05-10T01:14:16;7.50;;;6.37;;
11396;SDS011;5754;43.726;7.416;2023-05-10T01:16:53;7.43;;;6.73;;
11396;SDS011;5754;43.726;7.416;2023-05-10T01:19:29;8.20;;;6.30;;
11396;SDS011;5754;43.726;7.416;2023-05-10T01:34:39;6.77;;;5.90;;
11396;SDS011;5754;43.726;7.416;2023-05-10T01:37:22;8.27;;;5.97;;
11396;SDS011;5754;43.726;7.416;2023-05-10T01:40:26;6.23;;;5.70;;
11396;SDS011;5754;43.726;7.416;2023-05-10T01:43:04;7.70;;;6.50;;
11396;SDS011;5754;43.726;7.416;2023-05-10T01:48:52;6.60;;;6.00;;
11396;SDS011;5754;43.726;7.416;2023-05-10T01:51:31;6.10;;;5.53;;
11396;SDS011;5754;43.726;7.416;2023-05-10T01:54:09;7.57;;;6.00;;
11396;SDS011;5754;43.726;7.416;2023-05-10T01:56:50;9.10;;;5.87;;
11396;SDS011;5754;43.726;7.416;2023-05-10T01:59:28;6.37;;;5.77;;
11396;SDS011;5754;43.726;7.416;2023-05-10T02:02:04;6.97;;;6.07;;
11396;SDS011;5754;43.726;7.416;2023-05-10T02:04:41;6.83;;;5.77;;
11396;SDS011;5754;43.726;7.416;2023-05-10T02:07:16;6.23;;;5.63;;
11396;SDS011;5754;43.726;7.416;2023-05-10T02:09:52;6.37;;;5.87;;
11396;SDS011;5754;43.726;7.416;2023-05-10T02:12:28;7.67;;;6.10;;
11396;SDS011;5754;43.726;7.416;2023-05-10T02:15:06;6.57;;;5.80;;
11396;SDS011;5754;43.726;7.416;2023-05-10T02:17:42;6.80;;;6.10;;
11396;SDS011;5754;43.726;7.416;2023-05-10T02:20:18;6.33;;;5.73;;
11396;SDS011;5754;43.726;7.416;2023-05-10T02:22:54;9.37;;;5.97;;
11396;SDS011;5754;43.726;7.416;2023-05-10T02:25:31;6.57;;;5.97;;
11396;SDS011;5754;43.726;7.416;2023-05-10T02:28:06;6.83;;;6.07;;
11396;SDS011;5754;43.726;7.416;2023-05-10T02:30:42;8.27;;;6.20;;
11396;SDS011;5754;43.726;7.416;2023-05-10T02:33:19;8.53;;;5.87;;
11396;SDS011;5754;43.726;7.416;2023-05-10T02:35:56;6.63;;;6.13;;
11396;SDS011;5754;43.726;7.416;2023-05-10T02:38:31;6.43;;;5.93;;
11396;SDS011;5754;43.726;7.416;2023-05-10T02:41:07;6.67;;;6.17;;
11396;SDS011;5754;43.726;7.416;2023-05-10T02:43:46;8.17;;;6.40;;
11396;SDS011;5754;43.726;7.416;2023-05-10T02:46:23;6.67;;;6.03;;
11396;SDS011;5754;43.726;7.416;2023-05-10T02:49:01;6.80;;;5.67;;
11396;SDS011;5754;43.726;7.416;2023-05-10T02:51:37;6.10;;;5.50;;
11396;SDS011;5754;43.726;7.416;2023-05-10T02:54:18;6.03;;;5.47;;
11396;SDS011;5754;43.726;7.416;2023-05-10T02:56:55;6.57;;;5.97;;
11396;SDS011;5754;43.726;7.416;2023-05-10T02:59:31;8.23;;;6.10;;
11396;SDS011;5754;43.726;7.416;2023-05-10T03:02:06;6.80;;;5.87;;
11396;SDS011;5754;43.726;7.416;2023-05-10T03:04:42;5.87;;;5.33;;
11396;SDS011;5754;43.726;7.416;2023-05-10T03:07:17;6.00;;;5.50;;
11396;SDS011;5754;43.726;7.416;2023-05-10T03:09:57;6.00;;;5.43;;
11396;SDS011;5754;43.726;7.416;2023-05-10T03:18:50;8.87;;;5.67;;
11396;SDS011;5754;43.726;7.416;2023-05-10T03:21:28;5.70;;;5.30;;
11396;SDS011;5754;43.726;7.416;2023-05-10T03:24:07;6.50;;;5.87;;
11396;SDS011;5754;43.726;7.416;2023-05-10T03:26:43;5.67;;;5.10;;
11396;SDS011;5754;43.726;7.416;2023-05-10T03:29:22;6.97;;;5.37;;
11396;SDS011;5754;43.726;7.416;2023-05-10T03:31:58;5.70;;;5.17;;
11396;SDS011;5754;43.726;7.416;2023-05-10T03:34:34;5.90;;;5.40;;
11396;SDS011;5754;43.726;7.416;2023-05-10T03:37:17;6.90;;;4.90;;
11396;SDS011;5754;43.726;7.416;2023-05-10T03:39:51;5.43;;;4.93;;
11396;SDS011;5754;43.726;7.416;2023-05-10T03:42:27;6.70;;;5.03;;
11396;SDS011;5754;43.726;7.416;2023-05-10T03:45:01;6.83;;;5.33;;
11396;SDS011;5754;43.726;7.416;2023-05-10T03:47:37;5.17;;;4.77;;
11396;SDS011;5754;43.726;7.416;2023-05-10T03:50:12;6.37;;;5.23;;
11396;SDS011;5754;43.726;7.416;2023-05-10T03:52:48;5.37;;;4.87;;
11396;SDS011;5754;43.726;7.416;2023-05-10T03:55:25;4.87;;;4.53;;
11396;SDS011;5754;43.726;7.416;2023-05-10T03:57:59;8.27;;;5.33;;
11396;SDS011;5754;43.726;7.416;2023-05-10T04:00:37;5.63;;;5.00;;
11396;SDS011;5754;43.726;7.416;2023-05-10T04:03:19;5.03;;;4.63;;
11396;SDS011;5754;43.726;7.416;2023-05-10T04:05:58;5.70;;;4.80;;
11396;SDS011;5754;43.726;7.416;2023-05-10T04:08:36;5.53;;;4.93;;
11396;SDS011;5754;43.726;7.416;2023-05-10T04:11:13;5.73;;;5.13;;
11396;SDS011;5754;43.726;7.416;2023-05-10T04:13:48;5.33;;;4.50;;
11396;SDS011;5754;43.726;7.416;2023-05-10T04:16:23;5.60;;;5.10;;
11396;SDS011;5754;43.726;7.416;2023-05-10T04:18:59;5.57;;;5.07;;
11396;SDS011;5754;43.726;7.416;2023-05-10T04:21:35;5.20;;;4.70;;
11396;SDS011;5754;43.726;7.416;2023-05-10T04:24:09;7.10;;;5.30;;
11396;SDS011;5754;43.726;7.416;2023-05-10T04:26:45;4.53;;;4.23;;
11396;SDS011;5754;43.726;7.416;2023-05-10T04:29:19;5.67;;;5.10;;
11396;SDS011;5754;43.726;7.416;2023-05-10T04:31:54;6.23;;;5.60;;
11396;SDS011;5754;43.726;7.416;2023-05-10T04:34:30;6.97;;;5.63;;
11396;SDS011;5754;43.726;7.416;2023-05-10T04:37:11;7.97;;;5.07;;
11396;SDS011;5754;43.726;7.416;2023-05-10T04:39:47;5.83;;;5.23;;
11396;SDS011;5754;43.726;7.416;2023-05-10T04:42:22;5.50;;;5.00;;
11396;SDS011;5754;43.726;7.416;2023-05-10T04:44:58;5.90;;;5.10;;
11396;SDS011;5754;43.726;7.416;2023-05-10T04:47:33;6.43;;;5.23;;
11396;SDS011;5754;43.726;7.416;2023-05-10T04:50:07;5.63;;;5.13;;
11396;SDS011;5754;43.726;7.416;2023-05-10T04:52:42;6.53;;;5.50;;
11396;SDS011;5754;43.726;7.416;2023-05-10T04:55:19;6.10;;;5.60;;
11396;SDS011;5754;43.726;7.416;2023-05-10T04:57:55;5.90;;;5.30;;
11396;SDS011;5754;43.726;7.416;2023-05-10T05:00:33;5.70;;;5.20;;
11396;SDS011;5754;43.726;7.416;2023-05-10T05:03:10;5.80;;;5.20;;
11396;SDS011;5754;43.726;7.416;2023-05-10T05:05:46;5.93;;;5.33;;
11396;SDS011;5754;43.726;7.416;2023-05-10T05:08:21;5.53;;;5.03;;
11396;SDS011;5754;43.726;7.416;2023-05-10T05:10:59;6.40;;;5.77;;
11396;SDS011;5754;43.726;7.416;2023-05-10T05:13:36;5.63;;;5.00;;
11396;SDS011;5754;43.726;7.416;2023-05-10T05:16:12;5.93;;;5.33;;
11396;SDS011;5754;43.726;7.416;2023-05-10T05:18:47;5.53;;;5.03;;
11396;SDS011;5754;43.726;7.416;2023-05-10T05:21:23;7.63;;;5.30;;
11396;SDS011;5754;43.726;7.416;2023-05-10T05:24:01;5.80;;;5.13;;
11396;SDS011;5754;43.726;7.416;2023-05-10T05:26:36;6.40;;;5.87;;
11396;SDS011;5754;43.726;7.416;2023-05-10T05:29:12;6.10;;;4.87;;
11396;SDS011;5754;43.726;7.416;2023-05-10T05:31:47;5.77;;;5.27;;
11396;SDS011;5754;43.726;7.416;2023-05-10T05:34:24;5.53;;;5.03;;
11396;SDS011;5754;43.726;7.416;2023-05-10T05:37:00;5.97;;;5.20;;
11396;SDS011;5754;43.726;7.416;2023-05-10T05:39:36;6.37;;;5.30;;
11396;SDS011;5754;43.726;7.416;2023-05-10T05:42:11;5.80;;;5.20;;
11396;SDS011;5754;43.726;7.416;2023-05-10T05:44:47;5.87;;;5.37;;
11396;SDS011;5754;43.726;7.416;2023-05-10T05:47:22;5.77;;;5.17;;
11396;SDS011;5754;43.726;7.416;2023-05-10T05:49:58;6.00;;;5.50;;
11396;SDS011;5754;43.726;7.416;2023-05-10T05:52:32;6.50;;;5.20;;
11396;SDS011;5754;43.726;7.416;2023-05-10T05:55:06;6.33;;;5.70;;
11396;SDS011;5754;43.726;7.416;2023-05-10T05:57:44;6.37;;;5.13;;
11396;SDS011;5754;43.726;7.416;2023-05-10T06:00:20;5.20;;;4.80;;
11396;SDS011;5754;43.726;7.416;2023-05-10T06:02:56;5.47;;;4.97;;
11396;SDS011;5754;43.726;7.416;2023-05-10T06:05:34;5.50;;;4.93;;
11396;SDS011;5754;43.726;7.416;2023-05-10T06:08:10;5.63;;;5.13;;
11396;SDS011;5754;43.726;7.416;2023-05-10T06:10:46;5.37;;;4.87;;
11396;SDS011;5754;43.726;7.416;2023-05-10T06:13:22;5.73;;;5.10;;
11396;SDS011;5754;43.726;7.416;2023-05-10T06:15:56;7.17;;;5.20;;
11396;SDS011;5754;43.726;7.416;2023-05-10T06:18:31;4.50;;;4.10;;
11396;SDS011;5754;43.726;7.416;2023-05-10T06:21:09;4.40;;;3.80;;
11396;SDS011;5754;43.726;7.416;2023-05-10T06:23:44;5.60;;;4.15;;
11396;SDS011;5754;43.726;7.416;2023-05-10T06:26:19;4.07;;;3.67;;
11396;SDS011;5754;43.726;7.416;2023-05-10T06:28:54;4.53;;;3.90;;
11396;SDS011;5754;43.726;7.416;2023-05-10T06:31:29;5.95;;;3.95;;
11396;SDS011;5754;43.726;7.416;2023-05-10T06:34:06;4.30;;;3.87;;
11396;SDS011;5754;43.726;7.416;2023-05-10T06:36:41;5.90;;;3.78;;
11396;SDS011;5754;43.726;7.416;2023-05-10T06:39:18;4.05;;;3.65;;
11396;SDS011;5754;43.726;7.416;2023-05-10T06:41:55;6.15;;;4.53;;
11396;SDS011;5754;43.726;7.416;2023-05-10T06:44:30;4.62;;;4.00;;
11396;SDS011;5754;43.726;7.416;2023-05-10T06:47:04;5.10;;;4.07;;
11396;SDS011;5754;43.726;7.416;2023-05-10T06:49:39;5.32;;;3.70;;
11396;SDS011;5754;43.726;7.416;2023-05-10T06:52:13;5.25;;;3.62;;
11396;SDS011;5754;43.726;7.416;2023-05-10T06:54:48;5.20;;;3.80;;
11396;SDS011;5754;43.726;7.416;2023-05-10T06:57:23;3.90;;;3.60;;
11396;SDS011;5754;43.726;7.416;2023-05-10T07:00:06;6.22;;;4.07;;
11396;SDS011;5754;43.726;7.416;2023-05-10T07:02:45;7.07;;;4.30;;
11396;SDS011;5754;43.726;7.416;2023-05-10T07:05:21;6.75;;;4.15;;
11396;SDS011;5754;43.726;7.416;2023-05-10T07:07:56;3.95;;;3.47;;
11396;SDS011;5754;43.726;7.416;2023-05-10T07:10:31;5.15;;;3.60;;
11396;SDS011;5754;43.726;7.416;2023-05-10T07:13:06;5.10;;;3.58;;
11396;SDS011;5754;43.726;7.416;2023-05-10T07:15:41;4.62;;;3.95;;
11396;SDS011;5754;43.726;7.416;2023-05-10T07:18:18;4.72;;;3.70;;
11396;SDS011;5754;43.726;7.416;2023-05-10T07:20:53;6.55;;;3.85;;
11396;SDS011;5754;43.726;7.416;2023-05-10T07:23:30;5.25;;;3.60;;
11396;SDS011;5754;43.726;7.416;2023-05-10T07:26:04;3.70;;;3.40;;
11396;SDS011;5754;43.726;7.416;2023-05-10T07:28:41;4.97;;;3.42;;
11396;SDS011;5754;43.726;7.416;2023-05-10T07:31:15;4.30;;;3.72;;
11396;SDS011;5754;43.726;7.416;2023-05-10T07:33:50;4.28;;;3.70;;
11396;SDS011;5754;43.726;7.416;2023-05-10T07:36:25;5.07;;;3.70;;
11396;SDS011;5754;43.726;7.416;2023-05-10T07:39:00;6.10;;;3.62;;
11396;SDS011;5754;43.726;7.416;2023-05-10T07:41:36;4.00;;;3.60;;
11396;SDS011;5754;43.726;7.416;2023-05-10T07:44:11;7.68;;;4.00;;
11396;SDS011;5754;43.726;7.416;2023-05-10T07:46:46;6.65;;;4.35;;
11396;SDS011;5754;43.726;7.416;2023-05-10T07:49:21;4.87;;;3.60;;
11396;SDS011;5754;43.726;7.416;2023-05-10T07:51:58;3.80;;;3.50;;
11396;SDS011;5754;43.726;7.416;2023-05-10T07:54:33;3.65;;;3.00;;
11396;SDS011;5754;43.726;7.416;2023-05-10T07:57:08;3.10;;;2.80;;
11396;SDS011;5754;43.726;7.416;2023-05-10T07:59:43;4.68;;;3.28;;
11396;SDS011;5754;43.726;7.416;2023-05-10T08:02:19;3.58;;;3.10;;
11396;SDS011;5754;43.726;7.416;2023-05-10T08:04:55;4.18;;;2.92;;
11396;SDS011;5754;43.726;7.416;2023-05-10T08:07:29;5.03;;;3.10;;
11396;SDS011;5754;43.726;7.416;2023-05-10T08:10:05;3.75;;;3.15;;
11396;SDS011;5754;43.726;7.416;2023-05-10T08:12:41;4.72;;;3.25;;
11396;SDS011;5754;43.726;7.416;2023-05-10T08:15:16;4.07;;;3.37;;
11396;SDS011;5754;43.726;7.416;2023-05-10T08:17:50;4.90;;;3.22;;
11396;SDS011;5754;43.726;7.416;2023-05-10T08:20:25;4.82;;;3.37;;
11396;SDS011;5754;43.726;7.416;2023-05-10T08:23:01;3.45;;;2.92;;
11396;SDS011;5754;43.726;7.416;2023-05-10T08:25:35;3.67;;;3.37;;
11396;SDS011;5754;43.726;7.416;2023-05-10T08:28:09;5.72;;;3.87;;
11396;SDS011;5754;43.726;7.416;2023-05-10T08:30:44;8.35;;;3.95;;
11396;SDS011;5754;43.726;7.416;2023-05-10T08:33:19;5.65;;;3.95;;
11396;SDS011;5754;43.726;7.416;2023-05-10T08:35:55;7.97;;;3.92;;
11396;SDS011;5754;43.726;7.416;2023-05-10T08:38:30;6.05;;;3.90;;
11396;SDS011;5754;43.726;7.416;2023-05-10T08:41:06;4.32;;;3.35;;
11396;SDS011;5754;43.726;7.416;2023-05-10T08:43:40;6.50;;;3.78;;
11396;SDS011;5754;43.726;7.416;2023-05-10T08:46:21;5.15;;;4.03;;
11396;SDS011;5754;43.726;7.416;2023-05-10T08:48:58;4.72;;;3.65;;
11396;SDS011;5754;43.726;7.416;2023-05-10T08:51:40;4.65;;;4.10;;
11396;SDS011;5754;43.726;7.416;2023-05-10T08:54:16;4.03;;;3.67;;
11396;SDS011;5754;43.726;7.416;2023-05-10T08:56:52;4.45;;;3.80;;
11396;SDS011;5754;43.726;7.416;2023-05-10T08:59:27;4.43;;;3.67;;
11396;SDS011;5754;43.726;7.416;2023-05-10T09:02:02;4.93;;;4.20;;
11396;SDS011;5754;43.726;7.416;2023-05-10T09:04:41;7.12;;;4.15;;
11396;SDS011;5754;43.726;7.416;2023-05-10T09:07:16;4.65;;;4.12;;
11396;SDS011;5754;43.726;7.416;2023-05-10T09:09:50;5.00;;;3.28;;
11396;SDS011;5754;43.726;7.416;2023-05-10T09:12:27;6.40;;;4.00;;
11396;SDS011;5754;43.726;7.416;2023-05-10T09:15:01;4.78;;;3.72;;
11396;SDS011;5754;43.726;7.416;2023-05-10T09:17:37;5.43;;;3.50;;
11396;SDS011;5754;43.726;7.416;2023-05-10T09:20:13;6.10;;;3.65;;
11396;SDS011;5754;43.726;7.416;2023-05-10T09:22:48;4.93;;;3.78;;
11396;SDS011;5754;43.726;7.416;2023-05-10T09:25:23;4.47;;;3.70;;
11396;SDS011;5754;43.726;7.416;2023-05-10T09:27:58;6.65;;;3.97;;
11396;SDS011;5754;43.726;7.416;2023-05-10T09:30:34;3.95;;;3.60;;
11396;SDS011;5754;43.726;7.416;2023-05-10T09:33:08;3.90;;;3.40;;
11396;SDS011;5754;43.726;7.416;2023-05-10T09:35:43;6.12;;;3.55;;
11396;SDS011;5754;43.726;7.416;2023-05-10T09:38:17;5.15;;;3.50;;
11396;SDS011;5754;43.726;7.416;2023-05-10T09:40:52;3.72;;;3.15;;
11396;SDS011;5754;43.726;7.416;2023-05-10T09:43:28;3.60;;;3.30;;
11396;SDS011;5754;43.726;7.416;2023-05-10T09:46:08;4.07;;;3.67;;
11396;SDS011;5754;43.726;7.416;2023-05-10T09:48:47;3.70;;;3.40;;
11396;SDS011;5754;43.726;7.416;2023-05-10T09:51:24;5.00;;;3.70;;
11396;SDS011;5754;43.726;7.416;2023-05-10T09:54:10;4.78;;;3.30;;
11396;SDS011;5754;43.726;7.416;2023-05-10T09:56:46;5.12;;;3.75;;
11396;SDS011;5754;43.726;7.416;2023-05-10T09:59:21;4.35;;;3.50;;
11396;SDS011;5754;43.726;7.416;2023-05-10T10:01:56;6.60;;;3.75;;
11396;SDS011;5754;43.726;7.416;2023-05-10T10:04:38;4.57;;;3.60;;
11396;SDS011;5754;43.726;7.416;2023-05-10T10:07:13;7.85;;;3.50;;
11396;SDS011;5754;43.726;7.416;2023-05-10T10:09:49;6.57;;;3.80;;
11396;SDS011;5754;43.726;7.416;2023-05-10T10:12:24;6.32;;;4.22;;
11396;SDS011;5754;43.726;7.416;2023-05-10T10:15:01;8.55;;;5.20;;
11396;SDS011;5754;43.726;7.416;2023-05-10T10:17:38;5.13;;;4.63;;
11396;SDS011;5754;43.726;7.416;2023-05-10T10:20:14;5.35;;;4.85;;
11396;SDS011;5754;43.726;7.416;2023-05-10T10:22:50;4.90;;;4.50;;
11396;SDS011;5754;43.726;7.416;2023-05-10T10:25:26;4.95;;;4.35;;
11396;SDS011;5754;43.726;7.416;2023-05-10T10:32:01;5.47;;;4.80;;
11396;SDS011;5754;43.726;7.416;2023-05-10T10:34:38;5.05;;;4.55;;
11396;SDS011;5754;43.726;7.416;2023-05-10T10:37:14;5.68;;;4.82;;
11396;SDS011;5754;43.726;7.416;2023-05-10T10:39:48;5.87;;;4.03;;
11396;SDS011;5754;43.726;7.416;2023-05-10T10:45:18;5.10;;;4.47;;
11396;SDS011;5754;43.726;7.416;2023-05-10T10:50:47;5.47;;;4.57;;
11396;SDS011;5754;43.726;7.416;2023-05-10T10:53:22;7.10;;;4.17;;
11396;SDS011;5754;43.726;7.416;2023-05-10T10:56:04;5.43;;;4.18;;
11396;SDS011;5754;43.726;7.416;2023-05-10T10:58:40;5.82;;;3.75;;
11396;SDS011;5754;43.726;7.416;2023-05-10T11:07:16;3.90;;;3.40;;
11396;SDS011;5754;43.726;7.416;2023-05-10T11:09:54;4.28;;;3.45;;
11396;SDS011;5754;43.726;7.416;2023-05-10T11:12:31;4.37;;;3.67;;
11396;SDS011;5754;43.726;7.416;2023-05-10T11:15:08;5.87;;;3.87;;
11396;SDS011;5754;43.726;7.416;2023-05-10T11:17:43;4.78;;;3.67;;
11396;SDS011;5754;43.726;7.416;2023-05-10T11:20:20;5.60;;;3.53;;
11396;SDS011;5754;43.726;7.416;2023-05-10T11:22:57;4.28;;;3.35;;
11396;SDS011;5754;43.726;7.416;2023-05-10T11:25:32;4.15;;;3.25;;
11396;SDS011;5754;43.726;7.416;2023-05-10T11:28:07;5.97;;;3.72;;
11396;SDS011;5754;43.726;7.416;2023-05-10T11:30:43;5.72;;;3.37;;
11396;SDS011;5754;43.726;7.416;2023-05-10T11:33:19;3.75;;;3.08;;
11396;SDS011;5754;43.726;7.416;2023-05-10T11:35:54;3.17;;;2.80;;
11396;SDS011;5754;43.726;7.416;2023-05-10T11:38:30;6.03;;;2.80;;
11396;SDS011;5754;43.726;7.416;2023-05-10T11:41:09;7.85;;;3.30;;
11396;SDS011;5754;43.726;7.416;2023-05-10T11:43:49;3.15;;;2.87;;
11396;SDS011;5754;43.726;7.416;2023-05-10T11:46:26;4.40;;;3.05;;
11396;SDS011;5754;43.726;7.416;2023-05-10T11:49:02;4.85;;;2.60;;
11396;SDS011;5754;43.726;7.416;2023-05-10T11:51:41;6.65;;;3.03;;
11396;SDS011;5754;43.726;7.416;2023-05-10T11:54:17;4.10;;;2.85;;
11396;SDS011;5754;43.726;7.416;2023-05-10T11:56:51;7.62;;;3.05;;
11396;SDS011;5754;43.726;7.416;2023-05-10T11:59:27;2.67;;;2.47;;
11396;SDS011;5754;43.726;7.416;2023-05-10T12:02:02;6.32;;;2.80;;
11396;SDS011;5754;43.726;7.416;2023-05-10T12:04:37;7.12;;;2.53;;
11396;SDS011;5754;43.726;7.416;2023-05-10T12:07:14;5.20;;;2.85;;
11396;SDS011;5754;43.726;7.416;2023-05-10T12:10:07;4.35;;;2.40;;
11396;SDS011;5754;43.726;7.416;2023-05-10T12:12:44;4.05;;;2.25;;
11396;SDS011;5754;43.726;7.416;2023-05-10T12:15:23;5.05;;;2.40;;
11396;SDS011;5754;43.726;7.416;2023-05-10T12:17:58;8.68;;;4.75;;
11396;SDS011;5754;43.726;7.416;2023-05-10T12:20:35;2.55;;;1.98;;
11396;SDS011;5754;43.726;7.416;2023-05-10T12:23:09;3.50;;;2.12;;
11396;SDS011;5754;43.726;7.416;2023-05-10T12:25:45;2.60;;;1.80;;
11396;SDS011;5754;43.726;7.416;2023-05-10T12:28:21;3.22;;;1.70;;
11396;SDS011;5754;43.726;7.416;2023-05-10T12:30:57;2.83;;;2.25;;
11396;SDS011;5754;43.726;7.416;2023-05-10T12:33:36;2.95;;;1.75;;
11396;SDS011;5754;43.726;7.416;2023-05-10T12:36:15;2.20;;;1.70;;
11396;SDS011;5754;43.726;7.416;2023-05-10T12:39:00;2.17;;;1.60;;
11396;SDS011;5754;43.726;7.416;2023-05-10T12:41:38;2.70;;;1.83;;
11396;SDS011;5754;43.726;7.416;2023-05-10T12:44:14;2.45;;;1.55;;
11396;SDS011;5754;43.726;7.416;2023-05-10T12:46:49;3.70;;;2.10;;
11396;SDS011;5754;43.726;7.416;2023-05-10T12:49:24;3.10;;;1.73;;
11396;SDS011;5754;43.726;7.416;2023-05-10T12:52:00;1.98;;;1.70;;
11396;SDS011;5754;43.726;7.416;2023-05-10T12:54:35;1.80;;;1.65;;
11396;SDS011;5754;43.726;7.416;2023-05-10T12:57:14;2.92;;;1.80;;
11396;SDS011;5754;43.726;7.416;2023-05-10T12:59:48;2.40;;;1.80;;
11396;SDS011;5754;43.726;7.416;2023-05-10T13:02:26;2.75;;;1.90;;
11396;SDS011;5754;43.726;7.416;2023-05-10T13:05:01;3.45;;;1.80;;
11396;SDS011;5754;43.726;7.416;2023-05-10T13:07:36;4.07;;;1.70;;
11396;SDS011;5754;43.726;7.416;2023-05-10T13:10:12;2.35;;;1.80;;
11396;SDS011;5754;43.726;7.416;2023-05-10T13:12:48;2.17;;;1.73;;
11396;SDS011;5754;43.726;7.416;2023-05-10T13:15:23;4.47;;;1.80;;
11396;SDS011;5754;43.726;7.416;2023-05-10T13:17:57;1.98;;;1.35;;
11396;SDS011;5754;43.726;7.416;2023-05-10T13:20:33;1.75;;;1.65;;
11396;SDS011;5754;43.726;7.416;2023-05-10T13:23:08;4.40;;;1.70;;
11396;SDS011;5754;43.726;7.416;2023-05-10T13:25:43;6.68;;;2.10;;
11396;SDS011;5754;43.726;7.416;2023-05-10T13:28:18;5.78;;;1.80;;
11396;SDS011;5754;43.726;7.416;2023-05-10T13:30:53;3.30;;;1.73;;
11396;SDS011;5754;43.726;7.416;2023-05-10T13:33:29;1.80;;;1.60;;
11396;SDS011;5754;43.726;7.416;2023-05-10T13:36:05;2.55;;;1.50;;
11396;SDS011;5754;43.726;7.416;2023-05-10T13:38:40;1.83;;;1.70;;
11396;SDS011;5754;43.726;7.416;2023-05-10T13:41:15;2.60;;;1.75;;
11396;SDS011;5754;43.726;7.416;2023-05-10T13:43:51;2.65;;;1.65;;
11396;SDS011;5754;43.726;7.416;2023-05-10T13:46:26;3.33;;;1.62;;
11396;SDS011;5754;43.726;7.416;2023-05-10T13:49:00;1.83;;;1.50;;
11396;SDS011;5754;43.726;7.416;2023-05-10T13:51:35;1.77;;;1.40;;
11396;SDS011;5754;43.726;7.416;2023-05-10T13:54:10;3.65;;;1.50;;
11396;SDS011;5754;43.726;7.416;2023-05-10T13:56:46;2.08;;;1.50;;
11396;SDS011;5754;43.726;7.416;2023-05-10T13:59:22;2.35;;;1.62;;
11396;SDS011;5754;43.726;7.416;2023-05-10T14:01:57;5.10;;;2.03;;
11396;SDS011;5754;43.726;7.416;2023-05-10T14:04:34;5.35;;;1.90;;
11396;SDS011;5754;43.726;7.416;2023-05-10T14:07:10;2.85;;;1.75;;
11396;SDS011;5754;43.726;7.416;2023-05-10T14:09:44;4.23;;;1.90;;
11396;SDS011;5754;43.726;7.416;2023-05-10T14:12:21;2.67;;;1.80;;
11396;SDS011;5754;43.726;7.416;2023-05-10T14:14:57;3.10;;;1.60;;
11396;SDS011;5754;43.726;7.416;2023-05-10T14:17:32;2.67;;;2.00;;
11396;SDS011;5754;43.726;7.416;2023-05-10T14:20:09;2.10;;;1.87;;
11396;SDS011;5754;43.726;7.416;2023-05-10T14:22:44;2.03;;;1.70;;
11396;SDS011;5754;43.726;7.416;2023-05-10T14:25:21;1.87;;;1.60;;
11396;SDS011;5754;43.726;7.416;2023-05-10T14:27:57;3.53;;;1.67;;
11396;SDS011;5754;43.726;7.416;2023-05-10T14:30:31;2.93;;;2.00;;
11396;SDS011;5754;43.726;7.416;2023-05-10T14:33:08;2.23;;;1.90;;
11396;SDS011;5754;43.726;7.416;2023-05-10T14:35:45;2.00;;;1.47;;
11396;SDS011;5754;43.726;7.416;2023-05-10T14:38:20;2.83;;;1.80;;
11396;SDS011;5754;43.726;7.416;2023-05-10T14:40:56;3.27;;;2.10;;
11396;SDS011;5754;43.726;7.416;2023-05-10T14:43:32;5.87;;;2.60;;
11396;SDS011;5754;43.726;7.416;2023-05-10T14:46:08;2.23;;;1.60;;
11396;SDS011;5754;43.726;7.416;2023-05-10T14:48:44;2.13;;;1.83;;
11396;SDS011;5754;43.726;7.416;2023-05-10T14:51:20;3.07;;;2.13;;
11396;SDS011;5754;43.726;7.416;2023-05-10T14:53:56;4.60;;;2.17;;
11396;SDS011;5754;43.726;7.416;2023-05-10T14:56:32;4.70;;;2.10;;
11396;SDS011;5754;43.726;7.416;2023-05-10T14:59:07;2.77;;;1.80;;
11396;SDS011;5754;43.726;7.416;2023-05-10T15:01:43;2.60;;;2.30;;
11396;SDS011;5754;43.726;7.416;2023-05-10T15:04:18;5.33;;;2.50;;
11396;SDS011;5754;43.726;7.416;2023-05-10T15:06:54;4.47;;;2.10;;
11396;SDS011;5754;43.726;7.416;2023-05-10T15:09:32;5.47;;;2.10;;
11396;SDS011;5754;43.726;7.416;2023-05-10T15:12:08;5.20;;;2.30;;
11396;SDS011;5754;43.726;7.416;2023-05-10T15:14:44;6.97;;;2.17;;
11396;SDS011;5754;43.726;7.416;2023-05-10T15:17:20;8.17;;;2.80;;
11396;SDS011;5754;43.726;7.416;2023-05-10T15:19:55;8.53;;;3.20;;
11396;SDS011;5754;43.726;7.416;2023-05-10T15:22:30;16.00;;;4.20;;
11396;SDS011;5754;43.726;7.416;2023-05-10T15:25:07;10.03;;;3.83;;
11396;SDS011;5754;43.726;7.416;2023-05-10T15:27:44;11.73;;;4.20;;
11396;SDS011;5754;43.726;7.416;2023-05-10T15:30:20;10.40;;;4.10;;
11396;SDS011;5754;43.726;7.416;2023-05-10T15:32:55;9.53;;;3.33;;
11396;SDS011;5754;43.726;7.416;2023-05-10T15:35:30;6.33;;;2.93;;
11396;SDS011;5754;43.726;7.416;2023-05-10T15:38:07;5.73;;;2.70;;
11396;SDS011;5754;43.726;7.416;2023-05-10T15:40:42;5.37;;;2.90;;
11396;SDS011;5754;43.726;7.416;2023-05-10T15:43:17;6.17;;;2.73;;
11396;SDS011;5754;43.726;7.416;2023-05-10T15:45:53;3.00;;;2.40;;
11396;SDS011;5754;43.726;7.416;2023-05-10T15:48:27;5.37;;;2.87;;
11396;SDS011;5754;43.726;7.416;2023-05-10T15:51:07;8.43;;;4.00;;
11396;SDS011;5754;43.726;7.416;2023-05-10T15:53:41;7.40;;;3.60;;
11396;SDS011;5754;43.726;7.416;2023-05-10T15:56:24;12.33;;;3.30;;
11396;SDS011;5754;43.726;7.416;2023-05-10T15:58:59;7.77;;;2.30;;
11396;SDS011;5754;43.726;7.416;2023-05-10T16:01:34;7.20;;;2.63;;
11396;SDS011;5754;43.726;7.416;2023-05-10T16:04:08;12.57;;;3.03;;
11396;SDS011;5754;43.726;7.416;2023-05-10T16:06:43;13.03;;;3.47;;
11396;SDS011;5754;43.726;7.416;2023-05-10T16:09:18;16.70;;;4.03;;
11396;SDS011;5754;43.726;7.416;2023-05-10T16:11:54;14.13;;;3.13;;
11396;SDS011;5754;43.726;7.416;2023-05-10T16:14:29;18.00;;;3.37;;
11396;SDS011;5754;43.726;7.416;2023-05-10T16:17:04;14.67;;;3.30;;
11396;SDS011;5754;43.726;7.416;2023-05-10T16:19:38;10.27;;;3.07;;
11396;SDS011;5754;43.726;7.416;2023-05-10T16:22:13;8.80;;;2.07;;
11396;SDS011;5754;43.726;7.416;2023-05-10T16:24:48;6.60;;;2.10;;
11396;SDS011;5754;43.726;7.416;2023-05-10T16:27:31;4.63;;;1.60;;
11396;SDS011;5754;43.726;7.416;2023-05-10T16:30:06;4.13;;;2.30;;
11396;SDS011;5754;43.726;7.416;2023-05-10T16:32:41;3.83;;;1.67;;
11396;SDS011;5754;43.726;7.416;2023-05-10T16:35:20;4.20;;;1.93;;